Time;durP1;ratioP1;P1;durP2;ratioP2;P2;SDS_P1;SDS_P2;PMS_P1;PMS_P2;Temp;Humidity;BMP_temperature;BMP_pressure;BME280_temperature;BME280_humidity;BME280_pressure;Samples;Min_cycle;Max_cycle;Signal;HPM_P1;HPM_P2
2021/12/31 00:02:14;;;;;;;24.90;14.60;;;12.10;99.90;;;;;;5102113;28;20214;-53
2021/12/31 00:04:45;;;;;;;37.33;17.33;;;12.10;99.90;;;;;;5119825;28;20198;-51
2021/12/31 00:07:15;;;;;;;40.23;17.87;;;12.10;99.90;;;;;;5117894;28;20186;-50
2021/12/31 00:09:47;;;;;;;22.90;12.97;;;12.10;99.90;;;;;;5117533;28;20501;-50
2021/12/31 00:12:17;;;;;;;33.00;18.83;;;12.10;99.90;;;;;;5119055;28;20246;-50
2021/12/31 00:14:48;;;;;;;16.80;12.17;;;12.10;99.90;;;;;;5101081;28;20438;-50
2021/12/31 00:17:19;;;;;;;25.13;14.77;;;12.10;99.90;;;;;;5114090;28;20194;-51
2021/12/31 00:19:58;;;;;;;16.33;11.60;;;12.10;99.90;;;;;;5118156;28;20253;-51
2021/12/31 00:25:19;;;;;;;20.73;12.63;;;12.10;99.90;;;;;;5120843;28;20501;-49
2021/12/31 00:27:49;;;;;;;25.80;14.47;;;12.10;99.90;;;;;;5122438;28;20434;-50
2021/12/31 00:30:20;;;;;;;25.77;14.17;;;12.10;99.90;;;;;;5094142;28;20430;-50
2021/12/31 00:32:51;;;;;;;30.37;16.80;;;12.10;99.90;;;;;;5117566;28;20294;-50
2021/12/31 00:35:22;;;;;;;26.07;14.30;;;12.10;99.90;;;;;;5103316;29;20973;-49
2021/12/31 00:37:52;;;;;;;35.80;17.93;;;12.10;99.90;;;;;;5121178;29;20226;-50
2021/12/31 00:40:23;;;;;;;38.27;18.47;;;12.10;99.90;;;;;;5120447;28;20193;-50
2021/12/31 00:42:54;;;;;;;39.53;18.20;;;12.10;99.90;;;;;;5122039;29;20250;-50
2021/12/31 00:45:25;;;;;;;46.43;22.50;;;12.10;99.90;;;;;;5120552;28;20202;-50
2021/12/31 00:47:55;;;;;;;52.70;22.40;;;12.10;99.90;;;;;;5099486;28;20178;-51
2021/12/31 00:50:26;;;;;;;30.07;16.00;;;12.10;99.90;;;;;;5121861;28;20965;-50
2021/12/31 00:52:56;;;;;;;50.67;22.83;;;12.10;99.90;;;;;;5099508;28;20201;-50
2021/12/31 00:55:27;;;;;;;37.80;19.93;;;12.10;99.90;;;;;;5101894;29;20214;-49
2021/12/31 00:57:58;;;;;;;44.53;19.37;;;12.10;99.90;;;;;;5121263;28;20300;-52
2021/12/31 01:00:29;;;;;;;41.63;21.20;;;12.10;99.90;;;;;;5101698;29;20193;-49
2021/12/31 01:03:00;;;;;;;45.77;22.87;;;12.20;99.90;;;;;;5118122;28;20252;-50
2021/12/31 01:05:30;;;;;;;28.90;17.30;;;12.10;99.90;;;;;;5117903;28;20466;-50
2021/12/31 01:08:01;;;;;;;27.03;16.07;;;12.20;99.90;;;;;;5104176;28;20266;-50
2021/12/31 01:10:31;;;;;;;45.43;18.00;;;12.20;99.90;;;;;;5109080;29;20214;-49
2021/12/31 01:13:08;;;;;;;34.23;18.70;;;12.20;99.90;;;;;;5122984;28;20294;-49
2021/12/31 01:15:45;;;;;;;25.83;16.73;;;12.20;99.90;;;;;;5121290;29;20182;-54
2021/12/31 01:18:21;;;;;;;24.80;16.27;;;12.20;99.90;;;;;;5123778;29;20445;-50
2021/12/31 01:20:51;;;;;;;25.80;15.80;;;12.20;99.90;;;;;;5121777;28;20459;-50
2021/12/31 01:23:22;;;;;;;41.27;19.70;;;12.20;99.90;;;;;;5122816;29;20851;-50
2021/12/31 01:25:52;;;;;;;29.37;16.83;;;12.20;99.90;;;;;;5107443;29;20185;-51
2021/12/31 01:28:23;;;;;;;33.50;16.37;;;12.20;99.90;;;;;;5124986;29;20189;-50
2021/12/31 01:30:53;;;;;;;17.10;13.63;;;12.20;99.90;;;;;;5122580;28;20205;-51
2021/12/31 01:33:24;;;;;;;32.67;18.00;;;12.20;99.90;;;;;;5124079;29;20681;-51
2021/12/31 01:35:55;;;;;;;20.33;12.70;;;12.20;99.90;;;;;;5105953;28;20544;-50
2021/12/31 01:38:26;;;;;;;26.70;15.40;;;12.20;99.90;;;;;;5120603;28;20191;-51
2021/12/31 01:40:57;;;;;;;29.97;15.97;;;12.20;99.90;;;;;;5123460;28;20217;-51
2021/12/31 01:43:28;;;;;;;22.87;13.13;;;12.20;99.90;;;;;;5124030;29;20453;-50
2021/12/31 01:46:00;;;;;;;37.07;19.30;;;12.30;99.90;;;;;;5124843;29;20425;-50
2021/12/31 01:48:37;;;;;;;19.67;14.00;;;12.30;99.90;;;;;;5121016;28;20658;-50
2021/12/31 01:51:08;;;;;;;19.03;13.53;;;12.30;99.90;;;;;;5109082;29;20472;-49
2021/12/31 01:53:38;;;;;;;35.20;17.43;;;12.20;99.90;;;;;;5122062;29;20525;-50
2021/12/31 01:56:09;;;;;;;23.73;14.77;;;12.20;99.90;;;;;;5108456;28;20186;-50
2021/12/31 01:58:42;;;;;;;20.50;14.47;;;12.20;99.90;;;;;;5102743;28;20307;-50
2021/12/31 02:01:13;;;;;;;24.90;15.73;;;12.20;99.90;;;;;;5123355;28;20257;-49
2021/12/31 02:03:43;;;;;;;26.97;16.17;;;12.20;99.90;;;;;;5102808;29;20943;-49
2021/12/31 02:06:14;;;;;;;29.93;15.37;;;12.30;99.90;;;;;;5108638;29;20201;-50
2021/12/31 02:08:44;;;;;;;38.07;18.77;;;12.30;99.90;;;;;;5122231;28;20213;-50
2021/12/31 02:11:20;;;;;;;20.10;14.80;;;12.30;99.90;;;;;;5103691;29;20206;-51
2021/12/31 02:13:51;;;;;;;35.10;18.87;;;12.30;99.90;;;;;;5124813;29;20202;-50
2021/12/31 02:16:22;;;;;;;37.87;18.40;;;12.30;99.90;;;;;;5122847;29;20525;-51
2021/12/31 02:18:52;;;;;;;28.70;14.03;;;12.30;99.90;;;;;;5122737;29;20181;-51
2021/12/31 02:21:23;;;;;;;20.63;12.30;;;12.30;99.90;;;;;;5119114;28;20469;-50
2021/12/31 02:23:56;;;;;;;18.67;10.93;;;12.30;99.90;;;;;;5102494;29;20225;-50
2021/12/31 02:26:27;;;;;;;18.37;11.20;;;12.20;99.90;;;;;;5098697;29;20535;-50
2021/12/31 02:28:57;;;;;;;17.43;12.73;;;12.20;99.90;;;;;;5103634;29;20434;-50
2021/12/31 02:31:28;;;;;;;15.87;12.13;;;12.30;99.90;;;;;;5121497;29;20245;-50
2021/12/31 02:33:58;;;;;;;15.60;11.90;;;12.30;99.90;;;;;;5110546;29;20544;-53
2021/12/31 02:36:29;;;;;;;23.10;14.50;;;12.20;99.90;;;;;;5124361;29;20527;-50
2021/12/31 02:38:59;;;;;;;27.43;17.00;;;12.20;99.90;;;;;;5102572;29;20321;-50
2021/12/31 02:41:30;;;;;;;26.57;18.23;;;12.30;99.90;;;;;;5124468;28;20774;-50
2021/12/31 02:44:00;;;;;;;37.90;20.60;;;12.30;99.90;;;;;;5120642;29;20230;-51
2021/12/31 02:46:31;;;;;;;37.47;21.57;;;12.20;99.90;;;;;;5101356;29;20219;-50
2021/12/31 02:49:02;;;;;;;39.93;22.53;;;12.30;99.90;;;;;;5121022;29;20182;-51
2021/12/31 02:51:32;;;;;;;38.60;22.47;;;12.30;99.90;;;;;;5120245;28;20206;-50
2021/12/31 02:54:08;;;;;;;38.50;22.10;;;12.30;99.90;;;;;;5122719;29;20229;-51
2021/12/31 02:56:39;;;;;;;33.47;19.37;;;12.30;99.90;;;;;;5106727;29;20265;-49
2021/12/31 02:59:10;;;;;;;31.33;17.83;;;12.40;99.90;;;;;;5118008;29;20529;-50
2021/12/31 03:01:41;;;;;;;30.50;19.57;;;12.40;99.90;;;;;;5118375;28;20217;-49
2021/12/31 03:04:13;;;;;;;26.40;18.10;;;12.40;99.90;;;;;;5085497;29;20434;-51
2021/12/31 03:06:46;;;;;;;26.07;17.30;;;12.40;99.90;;;;;;5125015;28;20525;-52
2021/12/31 03:09:21;;;;;;;21.07;15.23;;;12.40;99.90;;;;;;5098048;29;20430;-50
2021/12/31 03:11:54;;;;;;;24.87;16.30;;;12.40;99.90;;;;;;5116816;29;20512;-50
2021/12/31 03:14:26;;;;;;;16.77;13.30;;;12.30;99.90;;;;;;5119978;28;20426;-52
2021/12/31 03:16:58;;;;;;;12.47;10.00;;;12.30;99.90;;;;;;5124082;29;20438;-50
2021/12/31 03:19:29;;;;;;;13.67;10.90;;;12.30;99.90;;;;;;5115906;28;20489;-51
2021/12/31 03:21:59;;;;;;;13.57;10.50;;;12.30;99.90;;;;;;5107410;28;20467;-51
2021/12/31 03:24:30;;;;;;;17.73;10.70;;;12.30;99.90;;;;;;5103029;29;20179;-51
2021/12/31 03:27:01;;;;;;;12.00;10.20;;;12.40;99.90;;;;;;5119982;29;20178;-51
2021/12/31 03:29:31;;;;;;;18.77;10.77;;;12.30;99.90;;;;;;5101381;29;20233;-50
2021/12/31 03:32:02;;;;;;;13.40;10.30;;;12.30;99.90;;;;;;5123651;28;20304;-51
2021/12/31 03:34:33;;;;;;;10.17;9.27;;;12.30;99.90;;;;;;5103463;29;20191;-49
2021/12/31 03:37:03;;;;;;;10.23;9.13;;;12.30;99.90;;;;;;5121606;29;20208;-51
2021/12/31 03:39:34;;;;;;;10.03;9.00;;;12.40;99.90;;;;;;5097150;29;20557;-51
2021/12/31 03:42:04;;;;;;;12.27;9.93;;;12.40;99.90;;;;;;5123692;29;20757;-50
2021/12/31 03:44:35;;;;;;;12.20;9.63;;;12.40;99.90;;;;;;5118745;28;20198;-50
2021/12/31 03:47:05;;;;;;;9.47;8.63;;;12.40;99.90;;;;;;5123105;28;20586;-51
2021/12/31 03:49:36;;;;;;;12.10;9.20;;;12.50;99.90;;;;;;5121317;28;20200;-50
2021/12/31 03:52:06;;;;;;;11.10;9.40;;;12.50;99.90;;;;;;5110263;29;20216;-50
2021/12/31 03:54:37;;;;;;;13.10;9.53;;;12.50;99.90;;;;;;5115307;29;20184;-51
2021/12/31 03:57:07;;;;;;;16.23;8.70;;;12.50;99.90;;;;;;5122677;29;20190;-51
2021/12/31 03:59:38;;;;;;;10.13;8.23;;;12.50;99.90;;;;;;5119629;29;20190;-50
2021/12/31 04:02:08;;;;;;;12.10;9.70;;;12.50;99.90;;;;;;5101737;29;20228;-51
2021/12/31 04:04:39;;;;;;;10.63;9.53;;;12.50;99.90;;;;;;5121165;29;20186;-50
2021/12/31 04:07:09;;;;;;;19.00;9.10;;;12.50;99.90;;;;;;5108390;29;20201;-51
2021/12/31 04:09:39;;;;;;;10.00;9.00;;;12.50;99.90;;;;;;5115287;29;20209;-51
2021/12/31 04:12:10;;;;;;;12.23;9.63;;;12.50;99.90;;;;;;5119182;28;20202;-50
2021/12/31 04:14:41;;;;;;;12.20;8.83;;;12.50;99.90;;;;;;5119199;29;20221;-51
2021/12/31 04:17:11;;;;;;;8.50;7.37;;;12.50;99.90;;;;;;5105550;28;20198;-50
2021/12/31 04:19:42;;;;;;;14.40;8.70;;;12.60;99.90;;;;;;5114951;29;20186;-53
2021/12/31 04:22:13;;;;;;;12.03;8.90;;;12.60;99.90;;;;;;5126138;28;20253;-49
2021/12/31 04:27:14;;;;;;;9.50;7.30;;;12.50;99.90;;;;;;5123320;29;20183;-50
2021/12/31 04:29:51;;;;;;;8.37;7.57;;;12.50;99.90;;;;;;5103921;28;20601;-51
2021/12/31 04:32:23;;;;;;;10.13;7.67;;;12.50;99.90;;;;;;5104765;29;20202;-51
2021/12/31 04:34:53;;;;;;;10.20;8.23;;;12.50;99.90;;;;;;5122445;29;20433;-52
2021/12/31 04:37:24;;;;;;;15.03;8.50;;;12.50;99.90;;;;;;5114007;28;20604;-52
2021/12/31 04:39:54;;;;;;;8.43;7.63;;;12.50;99.90;;;;;;5118362;29;20567;-50
2021/12/31 04:42:25;;;;;;;8.77;7.90;;;12.50;99.90;;;;;;5122778;29;20301;-50
2021/12/31 04:44:57;;;;;;;8.23;7.40;;;12.40;99.90;;;;;;5121092;29;20497;-51
2021/12/31 04:47:27;;;;;;;8.83;7.93;;;12.50;99.90;;;;;;5130770;28;20241;-51
2021/12/31 04:49:58;;;;;;;7.90;7.20;;;12.40;99.90;;;;;;5121874;28;20453;-52
2021/12/31 04:52:29;;;;;;;8.00;7.00;;;12.40;99.90;;;;;;5121109;28;20209;-51
2021/12/31 04:54:59;;;;;;;12.10;7.10;;;12.30;99.90;;;;;;5119231;29;20295;-50
2021/12/31 04:57:30;;;;;;;7.10;6.50;;;12.30;99.90;;;;;;5121880;28;20192;-49
2021/12/31 05:00:00;;;;;;;6.40;5.77;;;12.30;99.90;;;;;;5121244;29;20182;-49
2021/12/31 05:02:31;;;;;;;6.57;5.97;;;12.30;99.90;;;;;;5110876;28;20240;-51
2021/12/31 05:05:02;;;;;;;8.40;6.17;;;12.30;99.90;;;;;;5116399;29;20187;-50
2021/12/31 05:07:32;;;;;;;5.60;5.10;;;12.40;99.90;;;;;;5121246;28;20193;-50
2021/12/31 05:10:04;;;;;;;4.87;4.67;;;12.40;99.90;;;;;;5118061;29;20542;-52
2021/12/31 05:12:37;;;;;;;5.60;5.17;;;12.40;99.90;;;;;;5125069;28;20322;-51
2021/12/31 05:15:10;;;;;;;9.70;4.90;;;12.50;99.90;;;;;;5119057;28;20440;-50
2021/12/31 05:17:40;;;;;;;4.47;4.07;;;12.50;99.90;;;;;;5118018;28;20434;-50
2021/12/31 05:20:11;;;;;;;5.70;4.77;;;12.50;99.90;;;;;;5116118;29;20441;-51
2021/12/31 05:22:41;;;;;;;4.63;4.07;;;12.50;99.90;;;;;;5103566;28;20214;-51
2021/12/31 05:25:12;;;;;;;4.67;4.30;;;12.50;99.90;;;;;;5100971;29;20655;-51
2021/12/31 05:27:42;;;;;;;4.27;3.93;;;12.50;99.90;;;;;;5090893;29;20182;-50
2021/12/31 05:30:13;;;;;;;5.37;4.83;;;12.50;99.90;;;;;;5118038;28;20655;-52
2021/12/31 05:32:43;;;;;;;5.90;3.97;;;12.60;99.90;;;;;;5120123;28;20508;-51
2021/12/31 05:35:14;;;;;;;3.90;3.60;;;12.50;99.90;;;;;;5120703;28;20650;-50
2021/12/31 05:37:45;;;;;;;3.87;3.47;;;12.60;99.90;;;;;;5121828;28;20198;-51
2021/12/31 05:40:15;;;;;;;4.30;3.90;;;12.60;99.90;;;;;;5103933;29;20217;-51
2021/12/31 05:42:46;;;;;;;4.40;4.10;;;12.60;99.90;;;;;;5105398;29;20304;-49
2021/12/31 05:45:20;;;;;;;4.17;3.97;;;12.70;99.90;;;;;;5113426;28;20218;-52
2021/12/31 05:47:50;;;;;;;3.90;3.63;;;12.70;99.90;;;;;;5122695;28;20671;-52
2021/12/31 05:50:32;;;;;;;3.50;3.30;;;12.70;99.90;;;;;;5104694;29;20668;-51
2021/12/31 05:53:02;;;;;;;4.00;3.70;;;12.60;99.90;;;;;;5123490;29;20205;-52
2021/12/31 05:55:33;;;;;;;4.13;3.93;;;12.60;99.90;;;;;;5106267;29;20962;-50
2021/12/31 05:58:03;;;;;;;5.20;3.67;;;12.70;99.90;;;;;;5110182;29;20198;-52
2021/12/31 06:00:34;;;;;;;4.10;3.80;;;12.70;99.90;;;;;;5104103;29;20671;-49
2021/12/31 06:03:05;;;;;;;3.47;3.27;;;12.70;99.90;;;;;;5111136;29;20214;-50
2021/12/31 06:05:36;;;;;;;2.77;2.67;;;12.60;99.90;;;;;;5119595;28;20296;-50
2021/12/31 06:08:06;;;;;;;3.23;2.97;;;12.70;99.90;;;;;;5124818;28;20195;-50
2021/12/31 06:10:40;;;;;;;3.33;3.20;;;12.70;99.90;;;;;;5119242;29;20427;-52
2021/12/31 06:13:12;;;;;;;5.43;3.83;;;12.70;99.90;;;;;;5105049;29;20598;-51
2021/12/31 06:15:44;;;;;;;7.17;3.87;;;12.70;99.90;;;;;;5100920;28;20479;-52
2021/12/31 06:18:15;;;;;;;3.80;3.57;;;12.70;99.90;;;;;;5113083;29;20445;-50
2021/12/31 06:20:45;;;;;;;3.80;3.60;;;12.70;99.90;;;;;;5120567;28;20999;-51
2021/12/31 06:23:16;;;;;;;4.00;3.80;;;12.70;99.90;;;;;;5116904;28;20688;-50
2021/12/31 06:25:46;;;;;;;3.47;3.17;;;12.70;99.90;;;;;;5120548;29;21239;-50
2021/12/31 06:28:17;;;;;;;3.93;3.73;;;12.70;99.90;;;;;;5104712;29;20215;-51
2021/12/31 06:30:47;;;;;;;5.50;4.17;;;12.70;99.90;;;;;;5107282;28;20186;-50
2021/12/31 06:33:18;;;;;;;4.03;3.83;;;12.70;99.90;;;;;;5122869;28;20293;-50
2021/12/31 06:35:48;;;;;;;4.47;3.83;;;12.80;99.90;;;;;;5108387;29;20189;-51
2021/12/31 06:38:19;;;;;;;6.93;4.63;;;12.70;99.90;;;;;;5120699;29;20277;-53
2021/12/31 06:40:50;;;;;;;4.63;4.23;;;12.70;99.90;;;;;;5116995;28;20183;-51
2021/12/31 06:43:20;;;;;;;5.23;4.83;;;12.60;99.90;;;;;;5122987;28;20300;-52
2021/12/31 06:45:51;;;;;;;4.70;4.50;;;12.70;99.90;;;;;;5122772;29;20179;-52
2021/12/31 06:48:21;;;;;;;4.40;4.13;;;12.70;99.90;;;;;;5107199;29;20624;-51
2021/12/31 06:50:52;;;;;;;4.87;4.17;;;12.70;99.90;;;;;;5119787;28;20194;-51
2021/12/31 06:53:22;;;;;;;5.27;4.77;;;12.70;99.90;;;;;;5108043;29;20601;-50
2021/12/31 06:55:53;;;;;;;3.67;3.57;;;12.70;99.90;;;;;;5121524;28;20587;-50
2021/12/31 06:58:23;;;;;;;3.90;3.70;;;12.70;99.90;;;;;;5103314;29;20193;-51
2021/12/31 07:00:54;;;;;;;4.13;3.83;;;12.80;99.90;;;;;;5102140;29;20228;-50
2021/12/31 07:03:25;;;;;;;6.80;3.97;;;12.70;99.90;;;;;;5122004;29;20592;-51
2021/12/31 07:05:55;;;;;;;4.33;4.00;;;12.70;99.90;;;;;;5111981;28;20540;-50
2021/12/31 07:08:26;;;;;;;4.57;4.27;;;12.70;99.90;;;;;;5098024;29;20186;-52
2021/12/31 07:10:56;;;;;;;4.57;4.17;;;12.70;99.90;;;;;;5116698;28;20565;-49
2021/12/31 07:13:27;;;;;;;3.63;3.43;;;12.80;99.90;;;;;;5108689;29;20842;-51
2021/12/31 07:15:57;;;;;;;6.90;3.87;;;12.80;99.90;;;;;;5106661;29;20278;-50
2021/12/31 07:18:28;;;;;;;3.87;3.77;;;12.80;99.90;;;;;;5119298;29;20190;-50
2021/12/31 07:20:58;;;;;;;4.53;4.13;;;12.80;99.90;;;;;;5086459;28;20262;-50
2021/12/31 07:23:29;;;;;;;4.60;4.10;;;12.70;99.90;;;;;;5118902;29;20211;-50
2021/12/31 07:25:59;;;;;;;3.03;2.90;;;12.70;99.90;;;;;;5120249;29;20182;-50
2021/12/31 07:28:30;;;;;;;4.47;4.17;;;12.70;99.90;;;;;;5117712;28;20272;-50
2021/12/31 07:31:00;;;;;;;5.03;3.73;;;12.70;99.90;;;;;;5104322;28;20194;-50
2021/12/31 07:33:31;;;;;;;3.20;3.10;;;12.70;99.90;;;;;;5114071;29;20187;-51
2021/12/31 07:36:01;;;;;;;3.67;3.33;;;12.70;99.90;;;;;;5105118;29;20350;-51
2021/12/31 07:38:35;;;;;;;3.40;3.20;;;12.80;99.90;;;;;;5116512;28;20213;-50
2021/12/31 07:41:06;;;;;;;4.17;3.90;;;12.80;99.90;;;;;;5099766;29;20538;-51
2021/12/31 07:43:37;;;;;;;3.80;3.40;;;12.80;99.90;;;;;;5115310;28;20478;-51
2021/12/31 07:46:07;;;;;;;3.63;3.33;;;12.80;99.90;;;;;;5112441;29;20190;-52
2021/12/31 07:48:38;;;;;;;4.70;3.70;;;12.80;99.90;;;;;;5109298;28;20190;-51
2021/12/31 07:51:08;;;;;;;4.97;2.93;;;12.80;99.90;;;;;;5095729;28;20198;-50
2021/12/31 07:53:39;;;;;;;4.07;3.57;;;12.80;99.90;;;;;;5115326;28;20293;-51
2021/12/31 07:56:10;;;;;;;4.00;3.80;;;12.80;99.90;;;;;;5116117;28;20190;-52
2021/12/31 07:58:40;;;;;;;4.60;4.30;;;12.80;99.90;;;;;;5117422;28;20190;-50
2021/12/31 08:01:11;;;;;;;4.43;2.87;;;12.80;99.90;;;;;;5119814;28;20453;-51
2021/12/31 08:03:41;;;;;;;3.83;3.63;;;12.90;99.90;;;;;;5104350;29;20189;-51
2021/12/31 08:06:12;;;;;;;3.50;3.30;;;12.90;99.90;;;;;;5113006;28;20577;-51
2021/12/31 08:08:42;;;;;;;3.37;3.17;;;12.90;99.90;;;;;;5095073;28;20192;-51
2021/12/31 08:11:13;;;;;;;4.43;3.47;;;12.90;99.90;;;;;;5115438;28;20281;-52
2021/12/31 08:13:43;;;;;;;3.17;2.97;;;13.00;99.90;;;;;;5096753;29;20244;-53
2021/12/31 08:16:14;;;;;;;3.30;3.10;;;13.00;99.90;;;;;;5112695;28;20256;-51
2021/12/31 08:18:45;;;;;;;2.57;2.47;;;13.00;99.90;;;;;;5117839;28;20190;-51
2021/12/31 08:21:15;;;;;;;3.40;3.03;;;13.00;99.90;;;;;;5113242;28;20692;-51
2021/12/31 08:23:46;;;;;;;2.70;2.60;;;13.00;99.90;;;;;;5116510;29;20722;-51
2021/12/31 08:26:16;;;;;;;3.03;2.83;;;13.00;99.90;;;;;;5099795;29;20174;-51
2021/12/31 08:28:47;;;;;;;5.30;2.80;;;13.10;99.90;;;;;;5112356;28;20242;-51
2021/12/31 08:31:18;;;;;;;3.40;2.67;;;13.00;99.90;;;;;;5108744;28;20261;-51
2021/12/31 08:33:48;;;;;;;3.50;3.07;;;13.00;99.90;;;;;;5116026;28;20194;-52
2021/12/31 08:36:19;;;;;;;4.43;2.90;;;13.00;99.90;;;;;;5113207;29;20249;-51
2021/12/31 08:38:50;;;;;;;7.70;2.87;;;13.10;99.90;;;;;;5115168;29;20664;-51
2021/12/31 08:41:21;;;;;;;4.83;2.77;;;13.10;99.90;;;;;;5098933;29;20587;-51
2021/12/31 08:43:51;;;;;;;7.70;2.80;;;13.10;99.90;;;;;;5111875;28;20442;-51
2021/12/31 08:46:22;;;;;;;11.33;2.40;;;13.10;99.90;;;;;;5116862;28;20673;-51
2021/12/31 08:48:53;;;;;;;9.00;2.83;;;13.20;99.90;;;;;;5115678;29;20667;-50
2021/12/31 08:51:24;;;;;;;2.23;2.00;;;13.30;99.90;;;;;;5098751;29;20701;-51
2021/12/31 08:53:55;;;;;;;2.30;2.20;;;13.30;99.90;;;;;;5112153;28;20285;-51
2021/12/31 08:56:26;;;;;;;8.23;2.33;;;13.40;99.90;;;;;;5114105;29;21528;-51
2021/12/31 08:58:56;;;;;;;3.80;3.50;;;13.30;99.90;;;;;;5116408;28;20190;-51
2021/12/31 09:01:27;;;;;;;2.87;2.67;;;13.30;99.90;;;;;;5117811;28;20297;-52
2021/12/31 09:03:57;;;;;;;2.90;2.40;;;13.40;99.90;;;;;;5100968;29;20591;-50
2021/12/31 09:06:28;;;;;;;1.97;1.87;;;13.40;99.90;;;;;;5082913;29;20582;-51
2021/12/31 09:08:58;;;;;;;2.93;2.50;;;13.40;99.90;;;;;;5112108;29;20195;-50
2021/12/31 09:11:29;;;;;;;2.53;2.33;;;13.50;99.90;;;;;;5118237;28;20206;-50
2021/12/31 09:14:00;;;;;;;2.17;1.70;;;13.50;99.90;;;;;;5100736;29;20187;-51
2021/12/31 09:16:31;;;;;;;1.43;1.43;;;13.50;99.90;;;;;;5111830;28;20453;-50
2021/12/31 09:19:02;;;;;;;2.07;1.97;;;13.50;99.90;;;;;;5114682;28;20189;-50
2021/12/31 09:21:32;;;;;;;1.97;1.87;;;13.60;99.90;;;;;;5124043;28;20206;-50
2021/12/31 09:24:03;;;;;;;2.17;2.00;;;13.60;99.90;;;;;;5103856;29;20183;-49
2021/12/31 09:26:33;;;;;;;5.10;1.80;;;13.60;99.90;;;;;;5098335;29;20252;-50
2021/12/31 09:29:04;;;;;;;1.70;1.60;;;13.50;99.90;;;;;;5101838;28;20313;-51
2021/12/31 09:31:35;;;;;;;2.87;1.90;;;13.50;99.90;;;;;;5098346;28;20210;-51
2021/12/31 09:34:05;;;;;;;2.97;1.67;;;13.40;99.90;;;;;;5114866;29;20219;-51
2021/12/31 09:36:36;;;;;;;1.43;1.33;;;13.40;99.90;;;;;;5118318;28;20193;-50
2021/12/31 09:39:06;;;;;;;2.00;1.90;;;13.40;99.90;;;;;;5117375;28;20272;-50
2021/12/31 09:41:37;;;;;;;2.30;2.03;;;13.40;99.90;;;;;;5119570;28;20233;-50
2021/12/31 09:44:07;;;;;;;2.00;1.90;;;13.50;99.90;;;;;;5122961;29;20189;-52
2021/12/31 09:46:38;;;;;;;2.40;1.53;;;13.50;99.90;;;;;;5121418;28;20185;-51
2021/12/31 09:49:09;;;;;;;3.87;1.70;;;13.60;99.90;;;;;;5121894;28;20187;-51
2021/12/31 09:51:43;;;;;;;2.03;1.80;;;13.60;99.90;;;;;;5116638;29;20460;-52
2021/12/31 09:54:14;;;;;;;1.70;1.60;;;13.60;99.90;;;;;;5116932;29;20190;-50
2021/12/31 09:56:44;;;;;;;5.93;1.90;;;13.60;99.90;;;;;;5108514;29;21002;-51
2021/12/31 09:59:15;;;;;;;1.70;1.60;;;13.70;99.90;;;;;;5116651;29;20281;-51
2021/12/31 10:01:52;;;;;;;5.00;2.03;;;13.70;99.90;;;;;;5123154;28;20552;-50
2021/12/31 10:04:22;;;;;;;2.43;2.10;;;13.70;99.90;;;;;;5121055;29;20265;-50
2021/12/31 10:07:11;;;;;;;1.50;1.30;;;13.70;99.90;;;;;;5123133;28;20524;-52
2021/12/31 10:09:41;;;;;;;2.30;2.00;;;13.60;99.90;;;;;;5115921;29;20190;-50
2021/12/31 10:12:12;;;;;;;2.43;1.97;;;13.70;99.90;;;;;;5105447;29;20457;-51
2021/12/31 10:14:42;;;;;;;2.20;1.97;;;13.70;99.90;;;;;;5119517;29;20224;-51
2021/12/31 10:17:34;;;;;;;3.70;1.60;;;13.60;99.90;;;;;;5119825;28;20269;-52
2021/12/31 10:20:05;;;;;;;1.80;1.70;;;13.70;99.90;;;;;;5118131;28;20525;-53
2021/12/31 10:22:35;;;;;;;2.53;1.90;;;13.70;99.90;;;;;;5120625;28;20778;-52
2021/12/31 10:25:23;;;;;;;1.70;1.60;;;13.70;99.90;;;;;;5117929;28;20433;-50
2021/12/31 10:28:11;;;;;;;3.33;2.00;;;13.80;99.90;;;;;;5108429;29;20468;-52
2021/12/31 10:30:42;;;;;;;4.97;2.40;;;13.80;99.90;;;;;;5121366;28;20433;-52
2021/12/31 10:33:13;;;;;;;2.10;2.00;;;13.80;99.90;;;;;;5104400;29;20450;-51
2021/12/31 10:35:45;;;;;;;4.70;3.57;;;13.70;99.90;;;;;;5118042;28;20442;-51
2021/12/31 10:38:16;;;;;;;3.57;3.07;;;13.80;99.90;;;;;;5113215;28;20183;-51
2021/12/31 10:40:46;;;;;;;2.17;2.07;;;13.70;99.90;;;;;;5117404;28;20461;-51
2021/12/31 10:43:18;;;;;;;1.97;1.80;;;13.70;99.90;;;;;;5114468;28;20470;-53
2021/12/31 10:46:08;;;;;;;4.23;1.63;;;13.70;99.90;;;;;;5113669;28;20603;-52
2021/12/31 10:48:50;;;;;;;4.10;2.30;;;13.60;99.90;;;;;;5111691;29;20446;-52
2021/12/31 10:51:46;;;;;;;4.27;2.07;;;13.70;99.90;;;;;;5116895;29;20465;-52
2021/12/31 10:54:37;;;;;;;5.97;3.20;;;13.60;99.90;;;;;;5103383;29;20501;-50
2021/12/31 10:57:07;;;;;;;3.40;2.53;;;13.60;99.90;;;;;;5098914;29;20466;-51
2021/12/31 10:59:38;;;;;;;5.07;2.33;;;13.60;99.90;;;;;;5115246;28;20517;-53
2021/12/31 11:02:10;;;;;;;1.40;1.30;;;13.60;99.90;;;;;;5097886;29;20544;-51
2021/12/31 11:04:41;;;;;;;1.93;1.83;;;13.60;99.90;;;;;;5122088;29;20213;-52
2021/12/31 11:07:12;;;;;;;8.13;2.13;;;13.60;99.90;;;;;;5090773;28;20526;-58
2021/12/31 11:09:43;;;;;;;3.70;1.93;;;13.50;99.90;;;;;;5118814;28;20210;-50
2021/12/31 11:12:15;;;;;;;3.03;1.60;;;13.60;99.90;;;;;;5086872;28;20206;-52
2021/12/31 11:14:46;;;;;;;2.07;1.60;;;13.70;99.90;;;;;;5116122;28;20947;-50
2021/12/31 11:17:17;;;;;;;2.27;1.50;;;13.70;99.90;;;;;;5119007;29;20434;-52
2021/12/31 11:19:49;;;;;;;2.10;1.77;;;13.70;99.90;;;;;;5116722;29;20186;-54
2021/12/31 11:22:28;;;;;;;3.03;1.90;;;13.60;99.90;;;;;;5123102;28;20477;-52
2021/12/31 11:25:17;;;;;;;5.40;1.97;;;13.60;99.90;;;;;;5119315;28;20805;-50
2021/12/31 11:27:48;;;;;;;2.07;1.97;;;13.60;99.90;;;;;;5117007;28;20927;-51
2021/12/31 11:30:28;;;;;;;6.90;1.83;;;13.60;99.90;;;;;;5122364;29;20449;-52
2021/12/31 11:33:05;;;;;;;1.90;1.80;;;13.60;99.90;;;;;;5118815;28;20521;-52
2021/12/31 11:35:44;;;;;;;5.60;1.43;;;13.60;99.90;;;;;;5117986;28;20469;-51
2021/12/31 11:38:20;;;;;;;1.70;0.83;;;13.70;99.90;;;;;;5124011;28;20469;-53
2021/12/31 11:41:11;;;;;;;1.93;0.90;;;13.60;99.90;;;;;;5120094;28;20528;-53
2021/12/31 11:43:43;;;;;;;1.00;1.00;;;13.60;99.90;;;;;;5109334;28;23535;-51
2021/12/31 11:46:19;;;;;;;1.37;1.27;;;13.60;99.90;;;;;;5105408;28;20508;-51
2021/12/31 11:48:54;;;;;;;1.43;1.33;;;13.60;99.90;;;;;;5111752;28;20456;-52
2021/12/31 11:51:34;;;;;;;1.33;1.03;;;13.60;99.90;;;;;;5114141;28;20466;-53
2021/12/31 11:54:07;;;;;;;4.83;1.60;;;13.60;99.90;;;;;;5116218;28;20799;-50
2021/12/31 11:56:45;;;;;;;11.40;1.70;;;13.50;99.90;;;;;;5118057;28;20452;-51
2021/12/31 11:59:16;;;;;;;2.60;1.47;;;13.50;99.90;;;;;;5109882;28;20470;-52
2021/12/31 12:02:06;;;;;;;4.27;1.77;;;13.50;99.90;;;;;;5112897;28;20475;-52
2021/12/31 12:05:02;;;;;;;4.10;1.60;;;13.60;99.90;;;;;;5107955;28;20187;-51
2021/12/31 12:07:40;;;;;;;5.97;1.07;;;13.60;99.90;;;;;;5098577;28;20555;-51
2021/12/31 12:10:19;;;;;;;1.77;1.60;;;13.60;99.90;;;;;;5098425;28;20438;-52
2021/12/31 12:12:52;;;;;;;1.33;1.23;;;13.60;99.90;;;;;;5115107;28;20864;-51
2021/12/31 12:15:29;;;;;;;5.10;1.50;;;13.60;99.90;;;;;;5111945;28;20509;-53
2021/12/31 12:18:02;;;;;;;1.70;1.60;;;13.60;99.90;;;;;;5103557;28;20566;-53
2021/12/31 12:20:35;;;;;;;1.33;1.23;;;13.70;99.90;;;;;;5113288;28;20469;-51
2021/12/31 12:23:16;;;;;;;6.53;1.90;;;13.80;99.90;;;;;;5138676;23;20496;-51
2021/12/31 12:25:47;;;;;;;1.97;1.77;;;13.90;99.90;;;;;;5150889;28;20951;-50
2021/12/31 12:28:19;;;;;;;1.20;1.10;;;13.90;99.90;;;;;;5153747;28;20464;-49
2021/12/31 12:31:00;;;;;;;6.23;3.70;;;14.00;99.90;;;;;;5150963;28;20445;-50
2021/12/31 12:33:30;;;;;;;2.33;2.13;;;14.00;99.90;;;;;;5155989;28;21047;-51
2021/12/31 12:36:01;;;;;;;2.03;1.90;;;14.00;99.90;;;;;;5154409;28;20597;-50
2021/12/31 12:38:34;;;;;;;5.50;4.07;;;14.10;99.90;;;;;;5156692;28;20193;-49
2021/12/31 12:41:11;;;;;;;2.50;2.30;;;14.00;99.90;;;;;;5157115;28;20464;-51
2021/12/31 12:43:47;;;;;;;3.87;3.30;;;14.00;99.90;;;;;;5148624;28;20604;-50
2021/12/31 12:46:19;;;;;;;3.70;3.33;;;14.00;99.90;;;;;;5156891;28;20440;-51
2021/12/31 12:48:50;;;;;;;2.73;2.53;;;13.90;99.90;;;;;;5155601;28;21019;-49
2021/12/31 12:51:29;;;;;;;4.80;1.97;;;13.90;99.90;;;;;;5157978;28;20511;-52
2021/12/31 12:54:02;;;;;;;4.87;1.70;;;14.00;99.90;;;;;;5158533;28;20448;-50
2021/12/31 12:56:33;;;;;;;1.63;1.53;;;14.00;99.90;;;;;;5145628;28;20427;-50
2021/12/31 12:59:03;;;;;;;1.90;1.67;;;13.90;99.90;;;;;;5165252;28;20488;-51
2021/12/31 13:01:39;;;;;;;5.93;3.10;;;13.90;99.90;;;;;;5162106;28;20246;-50
2021/12/31 13:04:11;;;;;;;23.33;8.70;;;13.90;99.90;;;;;;5142224;28;20200;-52
2021/12/31 13:06:55;;;;;;;22.63;8.40;;;13.90;99.90;;;;;;5147673;28;20439;-51
2021/12/31 13:09:31;;;;;;;3.67;2.73;;;13.90;99.90;;;;;;5155742;28;20448;-50
2021/12/31 13:12:04;;;;;;;2.77;2.57;;;13.90;99.90;;;;;;5159964;28;20452;-52